KSMO/SMO METAR and TAF weather

Enter ICAO airport designator
Station Type Date Time Source
KSMO METAR 2021/07/30 05:51 UTC NOAA

KSMO 300551Z AUTO 00000KT 10SM BKN006 17/15 A2992 RMK AO2 SLP131 T01720150 10211 20172 51016


Station Type Date Time Source
KSMO Decoded METAR 2021/07/30 05:51 UTC NOAA

SANTA MONICA MUNICIPAL AIRPORT , CA, United States (KSMO) 34-01N 118-27W 57M
Jul 30, 2021 - 01:51 AM EDT / 2021.07.30 0551 UTC
Wind: Calm:0
Visibility: 10 mile(s):0
Sky conditions: mostly cloudy
Temperature: 63.0 F (17.2 C)
Dew Point: 59.0 F (15.0 C)
Relative Humidity: 86%
Pressure (altimeter): 29.92 in. Hg (1013 hPa)
Pressure tendency: 0.05 inches (1.6 hPa) higher than three hours ago
ob: KSMO 300551Z AUTO 00000KT 10SM BKN006 17/15 A2992 RMK AO2 SLP131 T01720150 10211 20172 51016
cycle: 6

Station Type Date Time Source
KSMO TAF 2021/07/30 06:37 UTC NOAA

TAF KSMO 300537Z 3006/3106 VRB03KT 6SM BR OVC006
FM301300 VRB03KT 2SM BR VCFG OVC003
FM301500 VRB03KT 6SM BR OVC006
FM301700 23008KT P6SM SCT010
FM310400 21004KT 6SM BR OVC006

Example: see airport list